sensor_id;sensor_type;location;lat;lon;timestamp;P1;durP1;ratioP1;P2;durP2;ratioP2
11699;SDS011;5906;51.660;6.674;2023-08-01T00:00:12;2.47;;;2.27;;
11699;SDS011;5906;51.660;6.674;2023-08-01T00:02:40;5.93;;;2.30;;
11699;SDS011;5906;51.660;6.674;2023-08-01T00:05:09;2.77;;;2.03;;
11699;SDS011;5906;51.660;6.674;2023-08-01T00:07:36;3.50;;;2.50;;
11699;SDS011;5906;51.660;6.674;2023-08-01T00:10:04;3.07;;;2.50;;
11699;SDS011;5906;51.660;6.674;2023-08-01T00:12:31;2.83;;;2.53;;
11699;SDS011;5906;51.660;6.674;2023-08-01T00:14:58;2.80;;;2.30;;
11699;SDS011;5906;51.660;6.674;2023-08-01T00:17:25;3.93;;;2.30;;
11699;SDS011;5906;51.660;6.674;2023-08-01T00:19:52;3.27;;;2.23;;
11699;SDS011;5906;51.660;6.674;2023-08-01T00:22:21;2.70;;;2.20;;
11699;SDS011;5906;51.660;6.674;2023-08-01T00:24:48;5.50;;;2.50;;
11699;SDS011;5906;51.660;6.674;2023-08-01T00:27:15;3.83;;;2.40;;
11699;SDS011;5906;51.660;6.674;2023-08-01T00:29:42;2.90;;;2.30;;
11699;SDS011;5906;51.660;6.674;2023-08-01T00:32:08;2.87;;;2.30;;
11699;SDS011;5906;51.660;6.674;2023-08-01T00:34:36;4.67;;;2.80;;
11699;SDS011;5906;51.660;6.674;2023-08-01T00:37:03;3.17;;;2.50;;
11699;SDS011;5906;51.660;6.674;2023-08-01T00:39:30;4.00;;;2.90;;
11699;SDS011;5906;51.660;6.674;2023-08-01T00:41:57;3.57;;;2.80;;
11699;SDS011;5906;51.660;6.674;2023-08-01T00:44:25;4.20;;;2.40;;
11699;SDS011;5906;51.660;6.674;2023-08-01T00:46:51;3.87;;;2.60;;
11699;SDS011;5906;51.660;6.674;2023-08-01T00:49:18;4.23;;;2.50;;
11699;SDS011;5906;51.660;6.674;2023-08-01T00:51:45;3.20;;;2.77;;
11699;SDS011;5906;51.660;6.674;2023-08-01T00:54:13;3.33;;;2.50;;
11699;SDS011;5906;51.660;6.674;2023-08-01T00:56:40;4.10;;;2.90;;
11699;SDS011;5906;51.660;6.674;2023-08-01T00:59:08;3.77;;;2.70;;
11699;SDS011;5906;51.660;6.674;2023-08-01T01:01:35;4.80;;;3.30;;
11699;SDS011;5906;51.660;6.674;2023-08-01T01:04:02;6.00;;;3.13;;
11699;SDS011;5906;51.660;6.674;2023-08-01T01:06:33;4.57;;;3.40;;
11699;SDS011;5906;51.660;6.674;2023-08-01T01:09:17;5.03;;;3.53;;
11699;SDS011;5906;51.660;6.674;2023-08-01T01:11:45;5.37;;;3.40;;
11699;SDS011;5906;51.660;6.674;2023-08-01T01:14:13;4.90;;;3.20;;
11699;SDS011;5906;51.660;6.674;2023-08-01T01:16:40;6.10;;;3.70;;
11699;SDS011;5906;51.660;6.674;2023-08-01T01:19:08;6.53;;;3.20;;
11699;SDS011;5906;51.660;6.674;2023-08-01T01:21:37;7.53;;;3.40;;
11699;SDS011;5906;51.660;6.674;2023-08-01T01:24:07;12.10;;;3.80;;
11699;SDS011;5906;51.660;6.674;2023-08-01T01:26:36;6.97;;;3.60;;
11699;SDS011;5906;51.660;6.674;2023-08-01T01:29:04;3.90;;;3.33;;
11699;SDS011;5906;51.660;6.674;2023-08-01T01:31:37;7.77;;;3.43;;
11699;SDS011;5906;51.660;6.674;2023-08-01T01:34:04;4.40;;;3.67;;
11699;SDS011;5906;51.660;6.674;2023-08-01T01:36:31;4.10;;;3.50;;
11699;SDS011;5906;51.660;6.674;2023-08-01T01:38:58;5.63;;;4.40;;
11699;SDS011;5906;51.660;6.674;2023-08-01T01:41:25;6.53;;;4.50;;
11699;SDS011;5906;51.660;6.674;2023-08-01T01:43:52;14.30;;;4.53;;
11699;SDS011;5906;51.660;6.674;2023-08-01T01:46:19;8.60;;;4.60;;
11699;SDS011;5906;51.660;6.674;2023-08-01T01:48:46;7.90;;;4.70;;
11699;SDS011;5906;51.660;6.674;2023-08-01T01:51:13;7.60;;;3.80;;
11699;SDS011;5906;51.660;6.674;2023-08-01T01:53:40;7.87;;;4.90;;
11699;SDS011;5906;51.660;6.674;2023-08-01T01:56:07;6.40;;;4.37;;
11699;SDS011;5906;51.660;6.674;2023-08-01T01:58:34;7.20;;;4.47;;
11699;SDS011;5906;51.660;6.674;2023-08-01T02:01:01;8.67;;;5.10;;
11699;SDS011;5906;51.660;6.674;2023-08-01T02:03:28;7.50;;;4.77;;
11699;SDS011;5906;51.660;6.674;2023-08-01T02:05:54;7.30;;;4.70;;
11699;SDS011;5906;51.660;6.674;2023-08-01T02:08:21;11.37;;;5.47;;
11699;SDS011;5906;51.660;6.674;2023-08-01T02:10:49;12.53;;;5.67;;
11699;SDS011;5906;51.660;6.674;2023-08-01T02:13:16;7.57;;;5.20;;
11699;SDS011;5906;51.660;6.674;2023-08-01T02:15:43;10.60;;;5.70;;
11699;SDS011;5906;51.660;6.674;2023-08-01T02:18:09;11.77;;;7.10;;
11699;SDS011;5906;51.660;6.674;2023-08-01T02:20:37;13.20;;;5.60;;
11699;SDS011;5906;51.660;6.674;2023-08-01T02:23:04;8.93;;;5.60;;
11699;SDS011;5906;51.660;6.674;2023-08-01T02:25:30;11.27;;;6.43;;
11699;SDS011;5906;51.660;6.674;2023-08-01T02:27:57;16.13;;;7.77;;
11699;SDS011;5906;51.660;6.674;2023-08-01T02:30:25;12.87;;;7.30;;
11699;SDS011;5906;51.660;6.674;2023-08-01T02:32:52;13.60;;;8.10;;
11699;SDS011;5906;51.660;6.674;2023-08-01T02:35:19;10.60;;;7.60;;
11699;SDS011;5906;51.660;6.674;2023-08-01T02:37:46;15.00;;;9.03;;
11699;SDS011;5906;51.660;6.674;2023-08-01T02:40:18;15.17;;;9.37;;
11699;SDS011;5906;51.660;6.674;2023-08-01T02:42:53;17.53;;;10.03;;
11699;SDS011;5906;51.660;6.674;2023-08-01T02:45:20;28.73;;;10.83;;
11699;SDS011;5906;51.660;6.674;2023-08-01T02:47:46;17.97;;;11.07;;
11699;SDS011;5906;51.660;6.674;2023-08-01T02:50:13;16.77;;;11.07;;
11699;SDS011;5906;51.660;6.674;2023-08-01T02:52:40;21.90;;;12.43;;
11699;SDS011;5906;51.660;6.674;2023-08-01T02:55:07;23.20;;;11.80;;
11699;SDS011;5906;51.660;6.674;2023-08-01T02:57:34;22.60;;;12.20;;
11699;SDS011;5906;51.660;6.674;2023-08-01T03:00:02;24.67;;;12.50;;
11699;SDS011;5906;51.660;6.674;2023-08-01T03:02:32;27.33;;;12.73;;
11699;SDS011;5906;51.660;6.674;2023-08-01T03:04:59;23.83;;;12.30;;
11699;SDS011;5906;51.660;6.674;2023-08-01T03:07:26;21.57;;;12.33;;
11699;SDS011;5906;51.660;6.674;2023-08-01T03:09:53;20.60;;;12.60;;
11699;SDS011;5906;51.660;6.674;2023-08-01T03:12:21;18.17;;;11.20;;
11699;SDS011;5906;51.660;6.674;2023-08-01T03:14:48;27.27;;;12.10;;
11699;SDS011;5906;51.660;6.674;2023-08-01T03:17:15;19.80;;;11.73;;
11699;SDS011;5906;51.660;6.674;2023-08-01T03:19:43;23.13;;;11.83;;
11699;SDS011;5906;51.660;6.674;2023-08-01T03:22:10;26.67;;;12.27;;
11699;SDS011;5906;51.660;6.674;2023-08-01T03:24:37;25.07;;;11.70;;
11699;SDS011;5906;51.660;6.674;2023-08-01T03:27:04;23.23;;;12.70;;
11699;SDS011;5906;51.660;6.674;2023-08-01T03:29:31;20.20;;;12.33;;
11699;SDS011;5906;51.660;6.674;2023-08-01T03:31:57;21.13;;;12.07;;
11699;SDS011;5906;51.660;6.674;2023-08-01T03:34:24;16.93;;;11.43;;
11699;SDS011;5906;51.660;6.674;2023-08-01T03:36:53;21.00;;;11.43;;
11699;SDS011;5906;51.660;6.674;2023-08-01T03:39:20;21.63;;;12.63;;
11699;SDS011;5906;51.660;6.674;2023-08-01T03:41:46;27.20;;;10.80;;
11699;SDS011;5906;51.660;6.674;2023-08-01T03:44:13;28.97;;;12.07;;
11699;SDS011;5906;51.660;6.674;2023-08-01T03:46:42;31.07;;;12.90;;
11699;SDS011;5906;51.660;6.674;2023-08-01T03:49:09;25.77;;;10.60;;
11699;SDS011;5906;51.660;6.674;2023-08-01T03:51:36;20.70;;;11.27;;
11699;SDS011;5906;51.660;6.674;2023-08-01T03:54:03;29.23;;;12.10;;
11699;SDS011;5906;51.660;6.674;2023-08-01T03:56:39;20.53;;;11.97;;
11699;SDS011;5906;51.660;6.674;2023-08-01T03:59:11;16.30;;;9.80;;
11699;SDS011;5906;51.660;6.674;2023-08-01T04:01:39;24.30;;;11.93;;
11699;SDS011;5906;51.660;6.674;2023-08-01T04:04:07;21.87;;;10.97;;
11699;SDS011;5906;51.660;6.674;2023-08-01T04:06:35;21.97;;;11.30;;
11699;SDS011;5906;51.660;6.674;2023-08-01T04:09:02;29.27;;;11.20;;
11699;SDS011;5906;51.660;6.674;2023-08-01T04:11:28;16.63;;;10.80;;
11699;SDS011;5906;51.660;6.674;2023-08-01T04:13:56;22.90;;;10.73;;
11699;SDS011;5906;51.660;6.674;2023-08-01T04:16:23;20.50;;;11.00;;
11699;SDS011;5906;51.660;6.674;2023-08-01T04:18:49;19.00;;;11.20;;
11699;SDS011;5906;51.660;6.674;2023-08-01T04:21:16;22.73;;;11.00;;
11699;SDS011;5906;51.660;6.674;2023-08-01T04:23:44;21.80;;;11.30;;
11699;SDS011;5906;51.660;6.674;2023-08-01T04:26:11;21.30;;;11.20;;
11699;SDS011;5906;51.660;6.674;2023-08-01T04:28:37;27.47;;;11.43;;
11699;SDS011;5906;51.660;6.674;2023-08-01T04:31:04;18.73;;;11.57;;
11699;SDS011;5906;51.660;6.674;2023-08-01T04:33:31;30.17;;;10.70;;
11699;SDS011;5906;51.660;6.674;2023-08-01T04:35:58;24.40;;;11.30;;
11699;SDS011;5906;51.660;6.674;2023-08-01T04:38:25;22.03;;;11.20;;
11699;SDS011;5906;51.660;6.674;2023-08-01T04:40:52;22.40;;;11.80;;
11699;SDS011;5906;51.660;6.674;2023-08-01T04:43:19;26.13;;;12.20;;
11699;SDS011;5906;51.660;6.674;2023-08-01T04:45:46;22.83;;;12.40;;
11699;SDS011;5906;51.660;6.674;2023-08-01T04:48:13;30.37;;;12.23;;
11699;SDS011;5906;51.660;6.674;2023-08-01T04:50:40;26.87;;;12.07;;
11699;SDS011;5906;51.660;6.674;2023-08-01T04:53:07;22.80;;;12.90;;
11699;SDS011;5906;51.660;6.674;2023-08-01T04:55:34;35.43;;;12.97;;
11699;SDS011;5906;51.660;6.674;2023-08-01T04:58:01;25.77;;;14.10;;
11699;SDS011;5906;51.660;6.674;2023-08-01T05:00:28;26.77;;;12.90;;
11699;SDS011;5906;51.660;6.674;2023-08-01T05:02:56;29.03;;;14.17;;
11699;SDS011;5906;51.660;6.674;2023-08-01T05:05:23;24.83;;;13.50;;
11699;SDS011;5906;51.660;6.674;2023-08-01T05:07:50;29.40;;;14.07;;
11699;SDS011;5906;51.660;6.674;2023-08-01T05:10:17;22.07;;;13.27;;
11699;SDS011;5906;51.660;6.674;2023-08-01T05:12:44;30.70;;;13.17;;
11699;SDS011;5906;51.660;6.674;2023-08-01T05:15:11;24.27;;;13.37;;
11699;SDS011;5906;51.660;6.674;2023-08-01T05:17:39;25.60;;;14.43;;
11699;SDS011;5906;51.660;6.674;2023-08-01T05:20:06;38.37;;;15.10;;
11699;SDS011;5906;51.660;6.674;2023-08-01T05:22:33;25.70;;;14.10;;
11699;SDS011;5906;51.660;6.674;2023-08-01T05:25:01;28.23;;;16.17;;
11699;SDS011;5906;51.660;6.674;2023-08-01T05:27:30;27.13;;;14.90;;
11699;SDS011;5906;51.660;6.674;2023-08-01T05:29:57;32.10;;;16.10;;
11699;SDS011;5906;51.660;6.674;2023-08-01T05:32:24;37.83;;;17.20;;
11699;SDS011;5906;51.660;6.674;2023-08-01T05:34:51;28.53;;;16.53;;
11699;SDS011;5906;51.660;6.674;2023-08-01T05:37:18;28.50;;;15.63;;
11699;SDS011;5906;51.660;6.674;2023-08-01T05:39:45;36.33;;;17.23;;
11699;SDS011;5906;51.660;6.674;2023-08-01T05:42:12;34.20;;;17.40;;
11699;SDS011;5906;51.660;6.674;2023-08-01T05:44:40;42.97;;;17.43;;
11699;SDS011;5906;51.660;6.674;2023-08-01T05:47:07;37.50;;;17.87;;
11699;SDS011;5906;51.660;6.674;2023-08-01T05:49:34;33.33;;;18.20;;
11699;SDS011;5906;51.660;6.674;2023-08-01T05:52:01;34.60;;;16.90;;
11699;SDS011;5906;51.660;6.674;2023-08-01T05:54:28;35.87;;;18.53;;
11699;SDS011;5906;51.660;6.674;2023-08-01T05:56:55;38.40;;;18.47;;
11699;SDS011;5906;51.660;6.674;2023-08-01T05:59:22;34.87;;;17.83;;
11699;SDS011;5906;51.660;6.674;2023-08-01T06:01:49;33.03;;;18.73;;
11699;SDS011;5906;51.660;6.674;2023-08-01T06:04:16;36.03;;;18.37;;
11699;SDS011;5906;51.660;6.674;2023-08-01T06:06:43;30.23;;;17.37;;
11699;SDS011;5906;51.660;6.674;2023-08-01T06:09:10;32.93;;;16.73;;
11699;SDS011;5906;51.660;6.674;2023-08-01T06:11:37;35.30;;;19.27;;
11699;SDS011;5906;51.660;6.674;2023-08-01T06:14:03;44.03;;;19.33;;
11699;SDS011;5906;51.660;6.674;2023-08-01T06:16:30;31.93;;;17.30;;
11699;SDS011;5906;51.660;6.674;2023-08-01T06:18:58;30.23;;;17.27;;
11699;SDS011;5906;51.660;6.674;2023-08-01T06:21:25;40.80;;;18.47;;
11699;SDS011;5906;51.660;6.674;2023-08-01T06:23:52;37.47;;;17.80;;
11699;SDS011;5906;51.660;6.674;2023-08-01T06:26:19;33.77;;;16.90;;
11699;SDS011;5906;51.660;6.674;2023-08-01T06:28:45;48.80;;;16.87;;
11699;SDS011;5906;51.660;6.674;2023-08-01T06:31:12;27.23;;;16.70;;
11699;SDS011;5906;51.660;6.674;2023-08-01T06:33:39;33.03;;;16.87;;
11699;SDS011;5906;51.660;6.674;2023-08-01T06:36:06;31.53;;;16.50;;
11699;SDS011;5906;51.660;6.674;2023-08-01T06:38:33;36.93;;;17.57;;
11699;SDS011;5906;51.660;6.674;2023-08-01T06:40:59;33.90;;;19.00;;
11699;SDS011;5906;51.660;6.674;2023-08-01T06:43:26;25.80;;;15.37;;
11699;SDS011;5906;51.660;6.674;2023-08-01T06:45:53;32.77;;;15.67;;
11699;SDS011;5906;51.660;6.674;2023-08-01T06:48:27;36.17;;;16.03;;
11699;SDS011;5906;51.660;6.674;2023-08-01T06:50:53;27.10;;;15.43;;
11699;SDS011;5906;51.660;6.674;2023-08-01T06:53:20;30.20;;;15.30;;
11699;SDS011;5906;51.660;6.674;2023-08-01T06:55:47;25.70;;;15.37;;
11699;SDS011;5906;51.660;6.674;2023-08-01T06:58:14;28.13;;;13.57;;
11699;SDS011;5906;51.660;6.674;2023-08-01T07:00:41;23.23;;;13.60;;
11699;SDS011;5906;51.660;6.674;2023-08-01T07:03:08;24.67;;;14.00;;
11699;SDS011;5906;51.660;6.674;2023-08-01T07:05:35;21.83;;;13.23;;
11699;SDS011;5906;51.660;6.674;2023-08-01T07:08:02;24.80;;;14.40;;
11699;SDS011;5906;51.660;6.674;2023-08-01T07:10:29;23.97;;;13.33;;
11699;SDS011;5906;51.660;6.674;2023-08-01T07:13:00;21.43;;;12.90;;
11699;SDS011;5906;51.660;6.674;2023-08-01T07:15:30;19.80;;;12.30;;
11699;SDS011;5906;51.660;6.674;2023-08-01T07:17:58;21.67;;;12.67;;
11699;SDS011;5906;51.660;6.674;2023-08-01T07:20:25;24.37;;;13.07;;
11699;SDS011;5906;51.660;6.674;2023-08-01T07:22:52;22.30;;;12.77;;
11699;SDS011;5906;51.660;6.674;2023-08-01T07:25:19;23.67;;;11.50;;
11699;SDS011;5906;51.660;6.674;2023-08-01T07:27:46;24.20;;;13.03;;
11699;SDS011;5906;51.660;6.674;2023-08-01T07:30:14;26.07;;;13.00;;
11699;SDS011;5906;51.660;6.674;2023-08-01T07:32:41;29.70;;;13.10;;
11699;SDS011;5906;51.660;6.674;2023-08-01T07:35:09;23.30;;;12.73;;
11699;SDS011;5906;51.660;6.674;2023-08-01T07:37:37;19.27;;;12.27;;
11699;SDS011;5906;51.660;6.674;2023-08-01T07:40:05;27.53;;;12.50;;
11699;SDS011;5906;51.660;6.674;2023-08-01T07:42:32;19.27;;;11.90;;
11699;SDS011;5906;51.660;6.674;2023-08-01T07:44:59;22.27;;;12.83;;
11699;SDS011;5906;51.660;6.674;2023-08-01T07:47:26;24.23;;;11.10;;
11699;SDS011;5906;51.660;6.674;2023-08-01T07:49:53;25.07;;;10.40;;
11699;SDS011;5906;51.660;6.674;2023-08-01T07:52:20;19.03;;;9.90;;
11699;SDS011;5906;51.660;6.674;2023-08-01T07:54:47;21.60;;;9.93;;
11699;SDS011;5906;51.660;6.674;2023-08-01T07:57:13;18.50;;;9.67;;
11699;SDS011;5906;51.660;6.674;2023-08-01T07:59:40;18.43;;;9.30;;
11699;SDS011;5906;51.660;6.674;2023-08-01T08:02:08;13.83;;;8.57;;
11699;SDS011;5906;51.660;6.674;2023-08-01T08:04:34;21.80;;;9.53;;
11699;SDS011;5906;51.660;6.674;2023-08-01T08:07:01;19.83;;;9.17;;
11699;SDS011;5906;51.660;6.674;2023-08-01T08:09:28;16.37;;;9.13;;
11699;SDS011;5906;51.660;6.674;2023-08-01T08:11:55;18.77;;;8.90;;
11699;SDS011;5906;51.660;6.674;2023-08-01T08:14:23;13.83;;;9.00;;
11699;SDS011;5906;51.660;6.674;2023-08-01T08:16:50;13.50;;;8.63;;
11699;SDS011;5906;51.660;6.674;2023-08-01T08:19:17;18.07;;;8.40;;
11699;SDS011;5906;51.660;6.674;2023-08-01T08:21:46;21.20;;;9.40;;
11699;SDS011;5906;51.660;6.674;2023-08-01T08:24:13;16.20;;;9.00;;
11699;SDS011;5906;51.660;6.674;2023-08-01T08:26:40;19.00;;;8.30;;
11699;SDS011;5906;51.660;6.674;2023-08-01T08:29:07;14.77;;;7.57;;
11699;SDS011;5906;51.660;6.674;2023-08-01T08:31:34;21.50;;;7.57;;
11699;SDS011;5906;51.660;6.674;2023-08-01T08:34:02;12.07;;;7.63;;
11699;SDS011;5906;51.660;6.674;2023-08-01T08:36:28;14.87;;;8.57;;
11699;SDS011;5906;51.660;6.674;2023-08-01T08:38:55;17.47;;;7.90;;
11699;SDS011;5906;51.660;6.674;2023-08-01T08:41:23;10.60;;;6.33;;
11699;SDS011;5906;51.660;6.674;2023-08-01T08:43:55;13.63;;;5.80;;
11699;SDS011;5906;51.660;6.674;2023-08-01T08:46:28;9.80;;;5.70;;
11699;SDS011;5906;51.660;6.674;2023-08-01T08:48:56;16.80;;;5.63;;
11699;SDS011;5906;51.660;6.674;2023-08-01T08:51:25;12.83;;;5.63;;
11699;SDS011;5906;51.660;6.674;2023-08-01T08:53:56;12.53;;;5.90;;
11699;SDS011;5906;51.660;6.674;2023-08-01T08:56:26;12.83;;;5.73;;
11699;SDS011;5906;51.660;6.674;2023-08-01T08:58:54;14.10;;;6.00;;
11699;SDS011;5906;51.660;6.674;2023-08-01T09:01:22;10.83;;;5.90;;
11699;SDS011;5906;51.660;6.674;2023-08-01T09:03:49;12.80;;;5.90;;
11699;SDS011;5906;51.660;6.674;2023-08-01T09:06:17;11.07;;;5.73;;
11699;SDS011;5906;51.660;6.674;2023-08-01T09:08:51;9.20;;;5.13;;
11699;SDS011;5906;51.660;6.674;2023-08-01T09:11:25;12.33;;;5.10;;
11699;SDS011;5906;51.660;6.674;2023-08-01T09:13:51;14.87;;;5.00;;
11699;SDS011;5906;51.660;6.674;2023-08-01T09:16:19;20.80;;;6.10;;
11699;SDS011;5906;51.660;6.674;2023-08-01T09:18:47;9.70;;;5.60;;
11699;SDS011;5906;51.660;6.674;2023-08-01T09:21:18;8.00;;;5.50;;
11699;SDS011;5906;51.660;6.674;2023-08-01T09:23:45;10.10;;;5.50;;
11699;SDS011;5906;51.660;6.674;2023-08-01T09:26:16;13.30;;;5.63;;
11699;SDS011;5906;51.660;6.674;2023-08-01T09:28:56;7.40;;;5.67;;
11699;SDS011;5906;51.660;6.674;2023-08-01T09:31:30;9.53;;;5.37;;
11699;SDS011;5906;51.660;6.674;2023-08-01T09:33:58;11.37;;;6.37;;
11699;SDS011;5906;51.660;6.674;2023-08-01T09:36:25;17.10;;;5.77;;
11699;SDS011;5906;51.660;6.674;2023-08-01T09:38:57;10.07;;;4.97;;
11699;SDS011;5906;51.660;6.674;2023-08-01T09:41:25;13.23;;;6.40;;
11699;SDS011;5906;51.660;6.674;2023-08-01T09:43:52;9.40;;;5.57;;
11699;SDS011;5906;51.660;6.674;2023-08-01T09:46:19;9.33;;;5.37;;
11699;SDS011;5906;51.660;6.674;2023-08-01T09:48:46;14.43;;;6.50;;
11699;SDS011;5906;51.660;6.674;2023-08-01T09:51:14;9.83;;;6.27;;
11699;SDS011;5906;51.660;6.674;2023-08-01T09:53:52;13.03;;;6.60;;
11699;SDS011;5906;51.660;6.674;2023-08-01T09:58:52;18.73;;;6.67;;
11699;SDS011;5906;51.660;6.674;2023-08-01T10:01:22;13.60;;;6.83;;
11699;SDS011;5906;51.660;6.674;2023-08-01T10:03:50;8.77;;;6.20;;
11699;SDS011;5906;51.660;6.674;2023-08-01T10:06:19;8.77;;;6.40;;
11699;SDS011;5906;51.660;6.674;2023-08-01T10:08:48;10.67;;;6.40;;
11699;SDS011;5906;51.660;6.674;2023-08-01T10:11:20;13.77;;;6.23;;
11699;SDS011;5906;51.660;6.674;2023-08-01T10:13:48;9.23;;;5.80;;
11699;SDS011;5906;51.660;6.674;2023-08-01T10:16:18;8.70;;;5.90;;
11699;SDS011;5906;51.660;6.674;2023-08-01T10:18:45;8.67;;;6.10;;
11699;SDS011;5906;51.660;6.674;2023-08-01T10:21:12;13.43;;;4.63;;
11699;SDS011;5906;51.660;6.674;2023-08-01T10:23:42;7.03;;;3.93;;
11699;SDS011;5906;51.660;6.674;2023-08-01T10:26:11;7.10;;;4.17;;
11699;SDS011;5906;51.660;6.674;2023-08-01T10:28:39;5.07;;;3.90;;
11699;SDS011;5906;51.660;6.674;2023-08-01T10:33:36;7.50;;;4.80;;
11699;SDS011;5906;51.660;6.674;2023-08-01T10:36:13;7.50;;;4.47;;
11699;SDS011;5906;51.660;6.674;2023-08-01T10:38:48;6.07;;;4.10;;
11699;SDS011;5906;51.660;6.674;2023-08-01T10:46:44;10.60;;;4.70;;
11699;SDS011;5906;51.660;6.674;2023-08-01T10:49:16;8.43;;;3.87;;
11699;SDS011;5906;51.660;6.674;2023-08-01T10:51:44;10.60;;;4.60;;
11699;SDS011;5906;51.660;6.674;2023-08-01T10:54:18;12.53;;;4.30;;
11699;SDS011;5906;51.660;6.674;2023-08-01T10:56:50;4.50;;;3.37;;
11699;SDS011;5906;51.660;6.674;2023-08-01T10:59:18;11.70;;;3.80;;
11699;SDS011;5906;51.660;6.674;2023-08-01T11:01:47;8.87;;;3.10;;
11699;SDS011;5906;51.660;6.674;2023-08-01T11:04:18;5.57;;;2.80;;
11699;SDS011;5906;51.660;6.674;2023-08-01T11:06:48;6.63;;;3.13;;
11699;SDS011;5906;51.660;6.674;2023-08-01T11:09:21;6.10;;;3.00;;
11699;SDS011;5906;51.660;6.674;2023-08-01T11:11:51;6.70;;;3.20;;
11699;SDS011;5906;51.660;6.674;2023-08-01T11:14:23;11.23;;;3.27;;
11699;SDS011;5906;51.660;6.674;2023-08-01T11:16:56;11.20;;;3.53;;
11699;SDS011;5906;51.660;6.674;2023-08-01T11:19:27;12.17;;;3.30;;
11699;SDS011;5906;51.660;6.674;2023-08-01T11:21:55;6.47;;;3.00;;
11699;SDS011;5906;51.660;6.674;2023-08-01T11:24:23;7.67;;;3.70;;
11699;SDS011;5906;51.660;6.674;2023-08-01T11:26:51;8.40;;;3.30;;
11699;SDS011;5906;51.660;6.674;2023-08-01T11:29:20;7.63;;;3.67;;
11699;SDS011;5906;51.660;6.674;2023-08-01T11:34:21;7.47;;;3.47;;
11699;SDS011;5906;51.660;6.674;2023-08-01T11:36:48;9.43;;;3.33;;
11699;SDS011;5906;51.660;6.674;2023-08-01T11:39:16;6.77;;;3.27;;
11699;SDS011;5906;51.660;6.674;2023-08-01T11:41:44;6.43;;;2.93;;
11699;SDS011;5906;51.660;6.674;2023-08-01T11:44:11;8.33;;;2.73;;
11699;SDS011;5906;51.660;6.674;2023-08-01T11:46:38;8.10;;;2.67;;
11699;SDS011;5906;51.660;6.674;2023-08-01T11:49:06;5.50;;;2.97;;
11699;SDS011;5906;51.660;6.674;2023-08-01T11:51:41;8.17;;;2.90;;
11699;SDS011;5906;51.660;6.674;2023-08-01T11:54:09;12.50;;;2.90;;
11699;SDS011;5906;51.660;6.674;2023-08-01T11:56:38;5.13;;;2.73;;
11699;SDS011;5906;51.660;6.674;2023-08-01T11:59:09;9.13;;;2.87;;
11699;SDS011;5906;51.660;6.674;2023-08-01T12:01:40;8.13;;;3.70;;
11699;SDS011;5906;51.660;6.674;2023-08-01T12:04:08;15.50;;;4.40;;
11699;SDS011;5906;51.660;6.674;2023-08-01T12:06:36;8.10;;;3.20;;
11699;SDS011;5906;51.660;6.674;2023-08-01T12:09:09;6.67;;;2.80;;
11699;SDS011;5906;51.660;6.674;2023-08-01T12:11:39;6.40;;;2.87;;
11699;SDS011;5906;51.660;6.674;2023-08-01T12:14:08;6.27;;;2.97;;
11699;SDS011;5906;51.660;6.674;2023-08-01T12:16:37;8.83;;;3.43;;
11699;SDS011;5906;51.660;6.674;2023-08-01T12:19:05;14.33;;;3.50;;
11699;SDS011;5906;51.660;6.674;2023-08-01T12:21:32;7.90;;;3.20;;
11699;SDS011;5906;51.660;6.674;2023-08-01T12:24:00;8.23;;;2.80;;
11699;SDS011;5906;51.660;6.674;2023-08-01T12:26:28;8.90;;;3.13;;
11699;SDS011;5906;51.660;6.674;2023-08-01T12:28:55;6.40;;;2.73;;
11699;SDS011;5906;51.660;6.674;2023-08-01T12:31:22;7.30;;;2.83;;
11699;SDS011;5906;51.660;6.674;2023-08-01T12:33:50;5.40;;;2.10;;
11699;SDS011;5906;51.660;6.674;2023-08-01T12:36:18;4.53;;;2.73;;
11699;SDS011;5906;51.660;6.674;2023-08-01T12:38:45;5.53;;;2.37;;
11699;SDS011;5906;51.660;6.674;2023-08-01T12:41:12;7.87;;;2.40;;
11699;SDS011;5906;51.660;6.674;2023-08-01T12:43:39;7.37;;;2.60;;
11699;SDS011;5906;51.660;6.674;2023-08-01T12:46:06;5.33;;;2.63;;
11699;SDS011;5906;51.660;6.674;2023-08-01T12:48:33;4.93;;;2.47;;
11699;SDS011;5906;51.660;6.674;2023-08-01T12:51:00;7.53;;;2.67;;
11699;SDS011;5906;51.660;6.674;2023-08-01T12:53:26;6.97;;;2.83;;
11699;SDS011;5906;51.660;6.674;2023-08-01T12:55:54;7.67;;;2.20;;
11699;SDS011;5906;51.660;6.674;2023-08-01T12:58:20;13.13;;;3.40;;
11699;SDS011;5906;51.660;6.674;2023-08-01T13:03:15;12.23;;;3.27;;
11699;SDS011;5906;51.660;6.674;2023-08-01T13:05:42;8.17;;;2.47;;
11699;SDS011;5906;51.660;6.674;2023-08-01T13:08:13;6.13;;;2.47;;
11699;SDS011;5906;51.660;6.674;2023-08-01T13:10:41;9.00;;;2.83;;
11699;SDS011;5906;51.660;6.674;2023-08-01T13:13:08;7.50;;;2.80;;
11699;SDS011;5906;51.660;6.674;2023-08-01T13:15:35;7.20;;;2.50;;
11699;SDS011;5906;51.660;6.674;2023-08-01T13:18:02;6.23;;;2.40;;
11699;SDS011;5906;51.660;6.674;2023-08-01T13:20:29;7.20;;;2.30;;
11699;SDS011;5906;51.660;6.674;2023-08-01T13:22:58;5.37;;;2.50;;
11699;SDS011;5906;51.660;6.674;2023-08-01T13:25:26;5.43;;;2.70;;
11699;SDS011;5906;51.660;6.674;2023-08-01T13:27:53;6.50;;;3.43;;
11699;SDS011;5906;51.660;6.674;2023-08-01T13:30:21;8.83;;;4.20;;
11699;SDS011;5906;51.660;6.674;2023-08-01T13:32:48;18.63;;;5.53;;
11699;SDS011;5906;51.660;6.674;2023-08-01T13:35:15;12.50;;;5.67;;
11699;SDS011;5906;51.660;6.674;2023-08-01T13:37:43;11.73;;;4.47;;
11699;SDS011;5906;51.660;6.674;2023-08-01T13:40:11;6.83;;;3.87;;
11699;SDS011;5906;51.660;6.674;2023-08-01T13:42:42;5.50;;;2.73;;
11699;SDS011;5906;51.660;6.674;2023-08-01T13:45:09;6.47;;;2.50;;
11699;SDS011;5906;51.660;6.674;2023-08-01T13:47:36;10.40;;;2.60;;
11699;SDS011;5906;51.660;6.674;2023-08-01T13:50:04;4.97;;;2.60;;
11699;SDS011;5906;51.660;6.674;2023-08-01T13:52:31;7.10;;;2.43;;
11699;SDS011;5906;51.660;6.674;2023-08-01T13:54:58;9.40;;;2.33;;
11699;SDS011;5906;51.660;6.674;2023-08-01T13:57:25;11.07;;;2.53;;
11699;SDS011;5906;51.660;6.674;2023-08-01T13:59:53;6.70;;;2.40;;
11699;SDS011;5906;51.660;6.674;2023-08-01T14:02:37;5.50;;;2.10;;
11699;SDS011;5906;51.660;6.674;2023-08-01T14:05:04;11.37;;;2.40;;
11699;SDS011;5906;51.660;6.674;2023-08-01T14:07:31;3.73;;;2.10;;
11699;SDS011;5906;51.660;6.674;2023-08-01T14:10:03;7.83;;;2.10;;
11699;SDS011;5906;51.660;6.674;2023-08-01T14:12:31;4.63;;;2.30;;
11699;SDS011;5906;51.660;6.674;2023-08-01T14:14:58;9.50;;;2.30;;
11699;SDS011;5906;51.660;6.674;2023-08-01T14:17:25;5.53;;;2.20;;
11699;SDS011;5906;51.660;6.674;2023-08-01T14:19:52;3.77;;;2.50;;
11699;SDS011;5906;51.660;6.674;2023-08-01T14:22:19;4.93;;;2.57;;
11699;SDS011;5906;51.660;6.674;2023-08-01T14:24:46;6.23;;;2.37;;
11699;SDS011;5906;51.660;6.674;2023-08-01T14:27:13;7.93;;;2.70;;
11699;SDS011;5906;51.660;6.674;2023-08-01T14:29:40;4.63;;;2.20;;
11699;SDS011;5906;51.660;6.674;2023-08-01T14:32:07;6.40;;;2.60;;
11699;SDS011;5906;51.660;6.674;2023-08-01T14:34:34;5.67;;;2.40;;
11699;SDS011;5906;51.660;6.674;2023-08-01T14:37:01;4.13;;;1.97;;
11699;SDS011;5906;51.660;6.674;2023-08-01T14:39:29;4.60;;;1.90;;
11699;SDS011;5906;51.660;6.674;2023-08-01T14:41:56;14.17;;;2.40;;
11699;SDS011;5906;51.660;6.674;2023-08-01T14:44:26;6.30;;;2.30;;
11699;SDS011;5906;51.660;6.674;2023-08-01T14:46:53;6.73;;;2.10;;
11699;SDS011;5906;51.660;6.674;2023-08-01T14:49:21;5.87;;;2.43;;
11699;SDS011;5906;51.660;6.674;2023-08-01T14:51:49;4.30;;;2.10;;
11699;SDS011;5906;51.660;6.674;2023-08-01T14:54:16;7.87;;;2.40;;
11699;SDS011;5906;51.660;6.674;2023-08-01T14:56:59;3.80;;;1.90;;
11699;SDS011;5906;51.660;6.674;2023-08-01T14:59:26;8.80;;;2.33;;
11699;SDS011;5906;51.660;6.674;2023-08-01T15:01:53;8.00;;;2.33;;
11699;SDS011;5906;51.660;6.674;2023-08-01T15:04:20;7.17;;;2.60;;
11699;SDS011;5906;51.660;6.674;2023-08-01T15:06:47;7.73;;;2.63;;